sensor_id;sensor_type;location;lat;lon;timestamp;P1;durP1;ratioP1;P2;durP2;ratioP2
40731;SDS011;26420;52.256;9.096;2022-08-05T00:04:55;10.93;;;5.05;;
40731;SDS011;26420;52.256;9.096;2022-08-05T00:09:57;14.20;;;5.97;;
40731;SDS011;26420;52.256;9.096;2022-08-05T00:14:58;12.85;;;5.47;;
40731;SDS011;26420;52.256;9.096;2022-08-05T00:20:20;14.75;;;6.65;;
40731;SDS011;26420;52.256;9.096;2022-08-05T00:25:29;14.80;;;6.88;;
40731;SDS011;26420;52.256;9.096;2022-08-05T00:30:46;15.68;;;8.30;;
40731;SDS011;26420;52.256;9.096;2022-08-05T00:35:54;15.15;;;8.48;;
40731;SDS011;26420;52.256;9.096;2022-08-05T00:41:25;18.33;;;9.00;;
40731;SDS011;26420;52.256;9.096;2022-08-05T00:46:48;17.60;;;9.40;;
40731;SDS011;26420;52.256;9.096;2022-08-05T00:52:02;17.67;;;10.73;;
40731;SDS011;26420;52.256;9.096;2022-08-05T00:57:03;21.35;;;11.13;;
40731;SDS011;26420;52.256;9.096;2022-08-05T01:02:05;19.58;;;11.25;;
40731;SDS011;26420;52.256;9.096;2022-08-05T01:07:09;26.48;;;11.95;;
40731;SDS011;26420;52.256;9.096;2022-08-05T01:12:14;25.05;;;11.75;;
40731;SDS011;26420;52.256;9.096;2022-08-05T01:17:22;22.55;;;12.80;;
40731;SDS011;26420;52.256;9.096;2022-08-05T01:33:25;24.67;;;14.25;;
40731;SDS011;26420;52.256;9.096;2022-08-05T01:38:36;24.08;;;13.18;;
40731;SDS011;26420;52.256;9.096;2022-08-05T01:43:38;26.35;;;13.40;;
40731;SDS011;26420;52.256;9.096;2022-08-05T01:48:41;23.73;;;13.65;;
40731;SDS011;26420;52.256;9.096;2022-08-05T01:53:49;22.33;;;13.32;;
40731;SDS011;26420;52.256;9.096;2022-08-05T01:59:04;24.02;;;12.70;;
40731;SDS011;26420;52.256;9.096;2022-08-05T02:04:09;25.15;;;11.75;;
40731;SDS011;26420;52.256;9.096;2022-08-05T02:09:11;23.55;;;11.85;;
40731;SDS011;26420;52.256;9.096;2022-08-05T02:14:18;16.35;;;9.85;;
40731;SDS011;26420;52.256;9.096;2022-08-05T02:24:31;16.30;;;8.88;;
40731;SDS011;26420;52.256;9.096;2022-08-05T02:29:39;15.68;;;8.20;;
40731;SDS011;26420;52.256;9.096;2022-08-05T02:35:02;13.80;;;8.48;;
40731;SDS011;26420;52.256;9.096;2022-08-05T02:40:15;13.40;;;8.32;;
40731;SDS011;26420;52.256;9.096;2022-08-05T02:45:18;15.50;;;8.40;;
40731;SDS011;26420;52.256;9.096;2022-08-05T02:50:25;23.90;;;12.85;;
40731;SDS011;26420;52.256;9.096;2022-08-05T02:55:28;29.88;;;14.63;;
40731;SDS011;26420;52.256;9.096;2022-08-05T03:00:54;24.13;;;14.00;;
40731;SDS011;26420;52.256;9.096;2022-08-05T03:05:58;24.25;;;13.75;;
40731;SDS011;26420;52.256;9.096;2022-08-05T03:11:22;26.00;;;13.80;;
40731;SDS011;26420;52.256;9.096;2022-08-05T03:16:45;27.98;;;14.38;;
40731;SDS011;26420;52.256;9.096;2022-08-05T03:21:48;24.55;;;13.75;;
40731;SDS011;26420;52.256;9.096;2022-08-05T03:26:50;27.17;;;14.70;;
40731;SDS011;26420;52.256;9.096;2022-08-05T03:31:53;29.25;;;15.38;;
40731;SDS011;26420;52.256;9.096;2022-08-05T03:36:57;27.92;;;14.63;;
40731;SDS011;26420;52.256;9.096;2022-08-05T03:42:00;29.30;;;14.68;;
40731;SDS011;26420;52.256;9.096;2022-08-05T03:47:02;25.45;;;13.77;;
40731;SDS011;26420;52.256;9.096;2022-08-05T03:52:05;27.25;;;14.65;;
40731;SDS011;26420;52.256;9.096;2022-08-05T03:57:31;25.77;;;15.15;;
40731;SDS011;26420;52.256;9.096;2022-08-05T04:02:44;31.65;;;15.20;;
40731;SDS011;26420;52.256;9.096;2022-08-05T04:08:00;27.63;;;14.82;;
40731;SDS011;26420;52.256;9.096;2022-08-05T04:18:08;27.35;;;14.20;;
40731;SDS011;26420;52.256;9.096;2022-08-05T04:23:23;30.70;;;14.65;;
40731;SDS011;26420;52.256;9.096;2022-08-05T04:28:46;31.73;;;14.18;;
40731;SDS011;26420;52.256;9.096;2022-08-05T04:33:52;28.60;;;14.07;;
40731;SDS011;26420;52.256;9.096;2022-08-05T04:39:14;27.75;;;14.20;;
40731;SDS011;26420;52.256;9.096;2022-08-05T04:44:15;25.13;;;13.25;;
40731;SDS011;26420;52.256;9.096;2022-08-05T04:49:30;27.10;;;13.55;;
40731;SDS011;26420;52.256;9.096;2022-08-05T04:54:52;24.13;;;12.40;;
40731;SDS011;26420;52.256;9.096;2022-08-05T04:59:57;21.65;;;11.27;;
40731;SDS011;26420;52.256;9.096;2022-08-05T05:04:59;25.30;;;11.43;;
40731;SDS011;26420;52.256;9.096;2022-08-05T05:10:03;18.48;;;10.73;;
40731;SDS011;26420;52.256;9.096;2022-08-05T05:15:06;21.42;;;11.13;;
40731;SDS011;26420;52.256;9.096;2022-08-05T05:20:11;19.65;;;9.93;;
40731;SDS011;26420;52.256;9.096;2022-08-05T05:25:14;17.20;;;9.93;;
40731;SDS011;26420;52.256;9.096;2022-08-05T05:30:17;20.92;;;11.15;;
40731;SDS011;26420;52.256;9.096;2022-08-05T05:35:33;20.03;;;10.37;;
40731;SDS011;26420;52.256;9.096;2022-08-05T05:40:42;22.67;;;9.63;;
40731;SDS011;26420;52.256;9.096;2022-08-05T05:45:51;15.25;;;9.02;;
40731;SDS011;26420;52.256;9.096;2022-08-05T05:50:53;14.95;;;8.23;;
40731;SDS011;26420;52.256;9.096;2022-08-05T05:55:54;15.23;;;7.78;;
40731;SDS011;26420;52.256;9.096;2022-08-05T06:01:03;12.65;;;7.15;;
40731;SDS011;26420;52.256;9.096;2022-08-05T06:06:15;12.27;;;6.97;;
40731;SDS011;26420;52.256;9.096;2022-08-05T06:11:17;13.05;;;7.88;;
40731;SDS011;26420;52.256;9.096;2022-08-05T06:16:20;10.27;;;5.25;;
40731;SDS011;26420;52.256;9.096;2022-08-05T06:21:32;13.10;;;5.68;;
40731;SDS011;26420;52.256;9.096;2022-08-05T06:26:39;13.47;;;7.03;;
40731;SDS011;26420;52.256;9.096;2022-08-05T06:31:52;22.40;;;12.32;;
40731;SDS011;26420;52.256;9.096;2022-08-05T06:36:54;11.88;;;7.10;;
40731;SDS011;26420;52.256;9.096;2022-08-05T06:41:59;12.02;;;6.63;;
40731;SDS011;26420;52.256;9.096;2022-08-05T06:47:04;11.93;;;6.30;;
40731;SDS011;26420;52.256;9.096;2022-08-05T06:52:10;14.00;;;7.80;;
40731;SDS011;26420;52.256;9.096;2022-08-05T06:57:32;11.70;;;6.57;;
40731;SDS011;26420;52.256;9.096;2022-08-05T07:02:54;12.38;;;6.93;;
40731;SDS011;26420;52.256;9.096;2022-08-05T07:07:56;10.10;;;6.55;;
40731;SDS011;26420;52.256;9.096;2022-08-05T07:12:57;8.50;;;6.10;;
40731;SDS011;26420;52.256;9.096;2022-08-05T07:18:38;10.20;;;5.90;;
40731;SDS011;26420;52.256;9.096;2022-08-05T07:23:48;8.35;;;5.07;;
40731;SDS011;26420;52.256;9.096;2022-08-05T07:28:52;7.72;;;4.30;;
40731;SDS011;26420;52.256;9.096;2022-08-05T07:33:54;8.02;;;4.43;;
40731;SDS011;26420;52.256;9.096;2022-08-05T07:39:00;7.72;;;4.03;;
40731;SDS011;26420;52.256;9.096;2022-08-05T07:44:06;8.87;;;4.93;;
40731;SDS011;26420;52.256;9.096;2022-08-05T07:49:19;7.50;;;5.32;;
40731;SDS011;26420;52.256;9.096;2022-08-05T07:54:21;9.57;;;5.63;;
40731;SDS011;26420;52.256;9.096;2022-08-05T07:59:33;12.02;;;6.22;;
40731;SDS011;26420;52.256;9.096;2022-08-05T08:04:40;9.18;;;6.80;;
40731;SDS011;26420;52.256;9.096;2022-08-05T08:09:45;8.95;;;6.90;;
40731;SDS011;26420;52.256;9.096;2022-08-05T08:14:48;10.30;;;6.30;;
40731;SDS011;26420;52.256;9.096;2022-08-05T08:19:50;8.52;;;6.25;;
40731;SDS011;26420;52.256;9.096;2022-08-05T08:25:11;7.43;;;5.70;;
40731;SDS011;26420;52.256;9.096;2022-08-05T08:30:17;8.15;;;4.72;;
40731;SDS011;26420;52.256;9.096;2022-08-05T08:35:38;7.47;;;4.13;;
40731;SDS011;26420;52.256;9.096;2022-08-05T08:40:52;7.25;;;4.82;;
40731;SDS011;26420;52.256;9.096;2022-08-05T08:45:55;4.85;;;3.38;;
40731;SDS011;26420;52.256;9.096;2022-08-05T08:51:00;4.85;;;3.30;;
40731;SDS011;26420;52.256;9.096;2022-08-05T08:56:26;4.40;;;2.65;;
40731;SDS011;26420;52.256;9.096;2022-08-05T09:01:28;8.23;;;5.13;;
40731;SDS011;26420;52.256;9.096;2022-08-05T09:06:31;4.55;;;2.40;;
40731;SDS011;26420;52.256;9.096;2022-08-05T09:11:36;2.88;;;2.00;;
40731;SDS011;26420;52.256;9.096;2022-08-05T09:16:54;3.17;;;2.40;;
40731;SDS011;26420;52.256;9.096;2022-08-05T09:21:58;4.63;;;3.08;;
40731;SDS011;26420;52.256;9.096;2022-08-05T09:27:30;6.28;;;3.13;;
40731;SDS011;26420;52.256;9.096;2022-08-05T09:32:52;5.53;;;3.20;;
40731;SDS011;26420;52.256;9.096;2022-08-05T09:38:04;7.38;;;3.60;;
40731;SDS011;26420;52.256;9.096;2022-08-05T09:43:52;5.75;;;3.22;;
40731;SDS011;26420;52.256;9.096;2022-08-05T09:48:49;6.65;;;3.70;;
40731;SDS011;26420;52.256;9.096;2022-08-05T09:54:08;9.13;;;4.22;;
40731;SDS011;26420;52.256;9.096;2022-08-05T09:59:12;10.10;;;4.80;;
40731;SDS011;26420;52.256;9.096;2022-08-05T10:04:17;11.50;;;5.00;;
40731;SDS011;26420;52.256;9.096;2022-08-05T10:09:29;8.38;;;4.47;;
40731;SDS011;26420;52.256;9.096;2022-08-05T10:14:45;9.47;;;5.07;;
40731;SDS011;26420;52.256;9.096;2022-08-05T10:19:49;9.10;;;5.53;;
40731;SDS011;26420;52.256;9.096;2022-08-05T10:25:11;11.82;;;7.32;;
40731;SDS011;26420;52.256;9.096;2022-08-05T10:30:14;12.85;;;7.50;;
40731;SDS011;26420;52.256;9.096;2022-08-05T10:35:36;11.65;;;8.15;;
40731;SDS011;26420;52.256;9.096;2022-08-05T10:45:59;12.63;;;9.68;;
40731;SDS011;26420;52.256;9.096;2022-08-05T10:51:08;11.93;;;8.98;;
40731;SDS011;26420;52.256;9.096;2022-08-05T10:56:26;14.48;;;10.07;;
40731;SDS011;26420;52.256;9.096;2022-08-05T11:01:38;16.02;;;11.65;;
40731;SDS011;26420;52.256;9.096;2022-08-05T11:11:57;11.50;;;7.25;;
40731;SDS011;26420;52.256;9.096;2022-08-05T11:22:48;12.27;;;7.60;;
40731;SDS011;26420;52.256;9.096;2022-08-05T11:28:41;6.93;;;5.30;;
40731;SDS011;26420;52.256;9.096;2022-08-05T11:38:49;6.28;;;4.68;;
40731;SDS011;26420;52.256;9.096;2022-08-05T11:43:58;9.37;;;6.13;;
40731;SDS011;26420;52.256;9.096;2022-08-05T11:49:11;4.82;;;3.72;;
40731;SDS011;26420;52.256;9.096;2022-08-05T11:54:22;4.75;;;3.38;;
40731;SDS011;26420;52.256;9.096;2022-08-05T11:59:34;5.40;;;3.58;;
40731;SDS011;26420;52.256;9.096;2022-08-05T12:04:50;6.07;;;3.27;;
40731;SDS011;26420;52.256;9.096;2022-08-05T12:10:00;6.93;;;5.00;;
40731;SDS011;26420;52.256;9.096;2022-08-05T12:15:18;6.10;;;3.50;;
40731;SDS011;26420;52.256;9.096;2022-08-05T12:20:38;5.18;;;3.05;;
40731;SDS011;26420;52.256;9.096;2022-08-05T12:26:15;3.45;;;2.38;;
40731;SDS011;26420;52.256;9.096;2022-08-05T12:31:09;4.28;;;2.10;;
40731;SDS011;26420;52.256;9.096;2022-08-05T12:36:23;3.50;;;2.45;;
40731;SDS011;26420;52.256;9.096;2022-08-05T12:41:29;6.03;;;2.70;;
40731;SDS011;26420;52.256;9.096;2022-08-05T12:46:35;3.92;;;3.15;;
40731;SDS011;26420;52.256;9.096;2022-08-05T12:51:48;3.55;;;2.88;;
40731;SDS011;26420;52.256;9.096;2022-08-05T12:57:12;4.90;;;2.85;;
40731;SDS011;26420;52.256;9.096;2022-08-05T13:02:18;3.80;;;2.85;;
40731;SDS011;26420;52.256;9.096;2022-08-05T13:07:31;3.50;;;2.20;;
40731;SDS011;26420;52.256;9.096;2022-08-05T13:12:54;3.20;;;2.30;;
40731;SDS011;26420;52.256;9.096;2022-08-05T13:17:58;2.85;;;2.40;;
40731;SDS011;26420;52.256;9.096;2022-08-05T13:23:01;4.50;;;2.35;;
40731;SDS011;26420;52.256;9.096;2022-08-05T13:28:07;3.60;;;2.58;;
40731;SDS011;26420;52.256;9.096;2022-08-05T13:33:10;3.58;;;1.95;;
40731;SDS011;26420;52.256;9.096;2022-08-05T13:38:32;2.17;;;1.88;;
40731;SDS011;26420;52.256;9.096;2022-08-05T13:43:42;2.17;;;1.73;;
40731;SDS011;26420;52.256;9.096;2022-08-05T13:48:55;2.42;;;2.10;;
40731;SDS011;26420;52.256;9.096;2022-08-05T13:54:01;9.03;;;5.97;;
40731;SDS011;26420;52.256;9.096;2022-08-05T13:59:03;4.28;;;2.70;;
40731;SDS011;26420;52.256;9.096;2022-08-05T14:04:06;3.55;;;2.25;;
40731;SDS011;26420;52.256;9.096;2022-08-05T14:09:50;3.22;;;2.38;;
40731;SDS011;26420;52.256;9.096;2022-08-05T14:14:52;4.22;;;2.53;;
40731;SDS011;26420;52.256;9.096;2022-08-05T14:19:54;3.33;;;2.20;;
40731;SDS011;26420;52.256;9.096;2022-08-05T14:25:04;3.88;;;2.30;;
40731;SDS011;26420;52.256;9.096;2022-08-05T14:30:22;2.63;;;2.10;;
40731;SDS011;26420;52.256;9.096;2022-08-05T14:35:28;3.47;;;2.15;;
40731;SDS011;26420;52.256;9.096;2022-08-05T14:40:49;4.07;;;3.05;;
40731;SDS011;26420;52.256;9.096;2022-08-05T14:45:51;5.07;;;2.90;;
40731;SDS011;26420;52.256;9.096;2022-08-05T14:50:53;3.75;;;2.83;;
40731;SDS011;26420;52.256;9.096;2022-08-05T14:55:55;4.38;;;2.25;;
40731;SDS011;26420;52.256;9.096;2022-08-05T15:00:57;4.20;;;2.17;;
40731;SDS011;26420;52.256;9.096;2022-08-05T15:06:02;3.10;;;2.80;;
40731;SDS011;26420;52.256;9.096;2022-08-05T15:11:13;2.40;;;2.20;;
40731;SDS011;26420;52.256;9.096;2022-08-05T15:16:16;2.53;;;2.08;;
40731;SDS011;26420;52.256;9.096;2022-08-05T15:21:18;2.00;;;1.80;;
40731;SDS011;26420;52.256;9.096;2022-08-05T15:26:21;4.03;;;2.00;;
40731;SDS011;26420;52.256;9.096;2022-08-05T15:31:32;2.83;;;1.98;;
40731;SDS011;26420;52.256;9.096;2022-08-05T15:36:35;3.30;;;1.70;;
40731;SDS011;26420;52.256;9.096;2022-08-05T15:41:38;3.28;;;1.70;;
40731;SDS011;26420;52.256;9.096;2022-08-05T15:46:59;2.35;;;1.55;;
40731;SDS011;26420;52.256;9.096;2022-08-05T15:52:02;2.38;;;1.23;;
40731;SDS011;26420;52.256;9.096;2022-08-05T15:57:17;1.73;;;1.40;;
40731;SDS011;26420;52.256;9.096;2022-08-05T16:02:19;2.45;;;1.40;;
40731;SDS011;26420;52.256;9.096;2022-08-05T16:07:29;3.13;;;1.30;;
40731;SDS011;26420;52.256;9.096;2022-08-05T16:12:31;2.13;;;1.63;;
40731;SDS011;26420;52.256;9.096;2022-08-05T16:17:33;2.83;;;1.58;;
40731;SDS011;26420;52.256;9.096;2022-08-05T16:22:34;3.30;;;1.70;;
40731;SDS011;26420;52.256;9.096;2022-08-05T16:27:38;3.50;;;1.70;;
40731;SDS011;26420;52.256;9.096;2022-08-05T16:33:00;1.65;;;1.50;;
40731;SDS011;26420;52.256;9.096;2022-08-05T17:02:38;1.05;;;0.60;;
40731;SDS011;26420;52.256;9.096;2022-08-05T17:37:03;1.65;;;0.80;;
40731;SDS011;26420;52.256;9.096;2022-08-05T17:42:25;1.10;;;0.40;;
40731;SDS011;26420;52.256;9.096;2022-08-05T17:47:32;1.38;;;0.60;;
40731;SDS011;26420;52.256;9.096;2022-08-05T17:52:37;2.35;;;0.60;;
40731;SDS011;26420;52.256;9.096;2022-08-05T17:57:57;2.58;;;1.60;;
40731;SDS011;26420;52.256;9.096;2022-08-05T18:03:00;1.57;;;0.57;;
40731;SDS011;26420;52.256;9.096;2022-08-05T18:08:03;1.58;;;0.50;;
40731;SDS011;26420;52.256;9.096;2022-08-05T18:13:06;1.17;;;0.60;;
40731;SDS011;26420;52.256;9.096;2022-08-05T18:18:13;0.90;;;0.60;;
40731;SDS011;26420;52.256;9.096;2022-08-05T18:23:16;0.55;;;0.50;;
40731;SDS011;26420;52.256;9.096;2022-08-05T18:28:18;0.85;;;0.55;;
40731;SDS011;26420;52.256;9.096;2022-08-05T18:33:28;1.52;;;0.60;;
40731;SDS011;26420;52.256;9.096;2022-08-05T18:38:47;0.60;;;0.55;;
40731;SDS011;26420;52.256;9.096;2022-08-05T18:43:50;0.90;;;0.40;;
40731;SDS011;26420;52.256;9.096;2022-08-05T18:48:52;1.83;;;0.70;;
40731;SDS011;26420;52.256;9.096;2022-08-05T18:53:54;1.00;;;0.68;;
40731;SDS011;26420;52.256;9.096;2022-08-05T18:58:56;1.30;;;0.70;;
40731;SDS011;26420;52.256;9.096;2022-08-05T19:04:01;3.17;;;0.70;;
40731;SDS011;26420;52.256;9.096;2022-08-05T19:09:05;2.88;;;0.60;;
40731;SDS011;26420;52.256;9.096;2022-08-05T19:14:07;1.27;;;0.50;;
40731;SDS011;26420;52.256;9.096;2022-08-05T19:19:29;1.77;;;0.77;;
40731;SDS011;26420;52.256;9.096;2022-08-05T19:24:31;1.30;;;0.70;;
40731;SDS011;26420;52.256;9.096;2022-08-05T19:29:35;1.95;;;0.63;;
40731;SDS011;26420;52.256;9.096;2022-08-05T19:34:39;3.50;;;0.57;;
40731;SDS011;26420;52.256;9.096;2022-08-05T19:39:42;1.00;;;0.70;;
40731;SDS011;26420;52.256;9.096;2022-08-05T19:44:51;3.35;;;0.75;;
40731;SDS011;26420;52.256;9.096;2022-08-05T19:49:55;1.65;;;0.70;;
40731;SDS011;26420;52.256;9.096;2022-08-05T19:55:00;1.52;;;0.75;;
40731;SDS011;26420;52.256;9.096;2022-08-05T20:00:09;1.73;;;0.70;;
40731;SDS011;26420;52.256;9.096;2022-08-05T20:05:12;0.70;;;0.70;;
40731;SDS011;26420;52.256;9.096;2022-08-05T20:10:25;2.30;;;1.10;;
40731;SDS011;26420;52.256;9.096;2022-08-05T20:15:26;1.00;;;0.70;;
40731;SDS011;26420;52.256;9.096;2022-08-05T20:20:49;1.30;;;0.80;;
40731;SDS011;26420;52.256;9.096;2022-08-05T20:25:51;1.95;;;0.90;;
40731;SDS011;26420;52.256;9.096;2022-08-05T20:30:54;1.20;;;0.80;;
40731;SDS011;26420;52.256;9.096;2022-08-05T20:35:56;2.13;;;0.93;;
40731;SDS011;26420;52.256;9.096;2022-08-05T20:40:58;2.85;;;1.20;;
40731;SDS011;26420;52.256;9.096;2022-08-05T20:46:04;1.57;;;0.90;;
40731;SDS011;26420;52.256;9.096;2022-08-05T20:51:06;1.27;;;0.93;;
40731;SDS011;26420;52.256;9.096;2022-08-05T20:56:08;1.33;;;1.08;;
40731;SDS011;26420;52.256;9.096;2022-08-05T21:01:10;2.03;;;0.88;;
40731;SDS011;26420;52.256;9.096;2022-08-05T21:06:13;1.08;;;0.82;;
40731;SDS011;26420;52.256;9.096;2022-08-05T21:11:29;0.95;;;0.85;;
40731;SDS011;26420;52.256;9.096;2022-08-05T21:16:51;2.35;;;0.98;;
40731;SDS011;26420;52.256;9.096;2022-08-05T21:21:53;2.83;;;0.90;;
40731;SDS011;26420;52.256;9.096;2022-08-05T21:26:55;1.02;;;0.80;;
40731;SDS011;26420;52.256;9.096;2022-08-05T21:32:02;2.70;;;1.00;;
40731;SDS011;26420;52.256;9.096;2022-08-05T21:37:04;2.08;;;1.00;;
40731;SDS011;26420;52.256;9.096;2022-08-05T21:42:08;1.33;;;1.00;;
40731;SDS011;26420;52.256;9.096;2022-08-05T21:47:30;1.55;;;1.13;;
40731;SDS011;26420;52.256;9.096;2022-08-05T21:52:52;3.20;;;1.27;;
40731;SDS011;26420;52.256;9.096;2022-08-05T21:58:04;2.28;;;0.80;;
40731;SDS011;26420;52.256;9.096;2022-08-05T22:03:06;3.30;;;0.93;;
40731;SDS011;26420;52.256;9.096;2022-08-05T22:08:10;2.83;;;0.95;;
40731;SDS011;26420;52.256;9.096;2022-08-05T22:13:24;2.10;;;1.08;;
40731;SDS011;26420;52.256;9.096;2022-08-05T22:18:46;4.10;;;1.33;;
40731;SDS011;26420;52.256;9.096;2022-08-05T22:23:49;1.88;;;1.02;;
40731;SDS011;26420;52.256;9.096;2022-08-05T22:29:29;0.90;;;0.90;;
40731;SDS011;26420;52.256;9.096;2022-08-05T22:34:33;2.15;;;0.80;;
40731;SDS011;26420;52.256;9.096;2022-08-05T22:39:36;1.30;;;1.20;;
40731;SDS011;26420;52.256;9.096;2022-08-05T22:44:39;1.70;;;1.20;;
40731;SDS011;26420;52.256;9.096;2022-08-05T22:49:48;1.08;;;0.93;;
40731;SDS011;26420;52.256;9.096;2022-08-05T22:55:10;2.15;;;1.00;;
40731;SDS011;26420;52.256;9.096;2022-08-05T23:00:21;1.00;;;1.00;;
40731;SDS011;26420;52.256;9.096;2022-08-05T23:05:23;1.65;;;1.20;;
40731;SDS011;26420;52.256;9.096;2022-08-05T23:10:25;1.58;;;1.17;;
40731;SDS011;26420;52.256;9.096;2022-08-05T23:15:27;1.92;;;1.10;;
40731;SDS011;26420;52.256;9.096;2022-08-05T23:20:36;2.25;;;1.00;;
40731;SDS011;26420;52.256;9.096;2022-08-05T23:25:38;1.70;;;1.20;;
40731;SDS011;26420;52.256;9.096;2022-08-05T23:30:55;0.95;;;0.85;;
40731;SDS011;26420;52.256;9.096;2022-08-05T23:36:17;1.67;;;0.93;;
40731;SDS011;26420;52.256;9.096;2022-08-05T23:41:19;1.60;;;0.85;;
40731;SDS011;26420;52.256;9.096;2022-08-05T23:46:22;3.05;;;1.00;;
40731;SDS011;26420;52.256;9.096;2022-08-05T23:51:24;1.42;;;0.80;;
40731;SDS011;26420;52.256;9.096;2022-08-05T23:56:26;1.73;;;1.00;;
